Time;durP1;ratioP1;P1;durP2;ratioP2;P2;SDS_P1;SDS_P2;PMS_P1;PMS_P2;Temp;Humidity;BMP_temperature;BMP_pressure;BME280_temperature;BME280_humidity;BME280_pressure;Samples;Min_cycle;Max_cycle;Signal;HPM_P1;HPM_P2
2021/07/31 00:03:40;;;;;;;4.93;4.40;;;22.70;40.00;;;;;;10463786;28;20221;-73
2021/07/31 00:09:03;;;;;;;5.07;4.67;;;22.60;40.90;;;;;;10461050;28;20803;-72
2021/07/31 00:14:06;;;;;;;5.20;4.80;;;22.50;40.10;;;;;;10460721;28;20220;-73
2021/07/31 00:19:11;;;;;;;5.23;4.73;;;22.50;40.40;;;;;;10458420;28;20229;-73
2021/07/31 00:24:14;;;;;;;5.83;4.80;;;22.50;41.20;;;;;;10459094;28;20225;-73
2021/07/31 00:29:17;;;;;;;4.50;4.20;;;22.40;40.50;;;;;;10453695;28;20221;-73
2021/07/31 00:34:22;;;;;;;5.67;4.97;;;22.40;40.60;;;;;;10460282;28;20225;-73
2021/07/31 00:39:25;;;;;;;5.20;4.70;;;22.40;41.20;;;;;;10457051;28;20228;-73
2021/07/31 00:44:28;;;;;;;5.37;4.87;;;22.30;40.60;;;;;;10459621;28;20311;-73
2021/07/31 00:49:33;;;;;;;5.00;4.60;;;22.20;40.80;;;;;;10454858;28;20224;-73
2021/07/31 00:54:37;;;;;;;4.73;4.33;;;22.20;41.70;;;;;;10454275;28;20227;-73
2021/07/31 00:59:40;;;;;;;4.83;4.43;;;22.10;41.00;;;;;;10462540;28;20250;-73
2021/07/31 01:04:44;;;;;;;5.00;4.60;;;22.20;41.20;;;;;;10463005;28;20351;-73
2021/07/31 01:09:47;;;;;;;5.30;4.90;;;22.10;41.80;;;;;;10459527;28;20236;-73
2021/07/31 01:14:51;;;;;;;4.77;4.27;;;22.20;41.20;;;;;;10457386;28;20610;-73
2021/07/31 01:19:55;;;;;;;5.37;4.87;;;22.10;41.10;;;;;;10457276;28;20255;-73
2021/07/31 01:25:01;;;;;;;4.33;4.03;;;22.20;41.80;;;;;;10458318;28;20232;-73
2021/07/31 01:30:05;;;;;;;4.73;4.37;;;22.20;41.70;;;;;;10452712;28;20224;-73
2021/07/31 01:35:09;;;;;;;4.73;4.37;;;22.20;41.30;;;;;;10458115;28;20224;-73
2021/07/31 01:40:15;;;;;;;4.97;4.57;;;22.30;41.10;;;;;;10458194;28;20227;-73
2021/07/31 01:45:18;;;;;;;4.70;4.30;;;22.30;41.90;;;;;;10458362;28;20224;-73
2021/07/31 01:50:21;;;;;;;5.07;4.67;;;22.30;41.10;;;;;;10460828;28;20232;-74
2021/07/31 01:55:26;;;;;;;5.23;4.73;;;22.30;41.20;;;;;;10456468;28;20259;-73
2021/07/31 02:00:29;;;;;;;5.13;4.63;;;22.20;41.90;;;;;;10458212;28;20229;-73
2021/07/31 02:05:32;;;;;;;4.80;4.37;;;22.20;41.60;;;;;;10457001;28;20235;-74
2021/07/31 02:10:37;;;;;;;4.10;3.80;;;22.20;41.70;;;;;;10460401;28;20247;-74
2021/07/31 02:15:40;;;;;;;5.17;4.70;;;22.10;42.10;;;;;;10461960;28;20224;-74
2021/07/31 02:20:44;;;;;;;4.83;4.43;;;22.10;41.70;;;;;;10458491;28;20848;-73
2021/07/31 02:25:49;;;;;;;4.70;4.30;;;22.10;41.90;;;;;;10456562;28;20240;-73
2021/07/31 02:30:52;;;;;;;5.33;4.90;;;22.10;42.20;;;;;;10453430;28;20224;-73
2021/07/31 02:35:55;;;;;;;4.60;4.20;;;22.10;41.70;;;;;;10456625;28;20933;-71
2021/07/31 02:41:00;;;;;;;5.23;4.53;;;22.10;41.80;;;;;;10460188;28;20767;-70
2021/07/31 02:46:04;;;;;;;5.00;4.60;;;22.10;42.40;;;;;;10451036;28;20985;-71
2021/07/31 02:51:09;;;;;;;5.03;4.53;;;22.10;42.10;;;;;;10455912;28;20239;-70
2021/07/31 02:56:14;;;;;;;5.07;4.67;;;22.10;42.20;;;;;;10451769;28;20232;-71
2021/07/31 03:01:17;;;;;;;4.87;4.47;;;22.00;42.50;;;;;;10455905;28;20225;-71
2021/07/31 03:06:20;;;;;;;4.50;4.13;;;22.10;42.20;;;;;;10455675;28;20599;-70
2021/07/31 03:11:25;;;;;;;5.23;4.73;;;22.10;42.10;;;;;;10454394;28;20248;-70
2021/07/31 03:16:28;;;;;;;5.23;4.20;;;22.10;42.40;;;;;;10455083;28;20227;-70
2021/07/31 03:21:32;;;;;;;5.40;4.40;;;22.10;41.90;;;;;;10468266;28;20251;-73
2021/07/31 03:26:36;;;;;;;4.63;4.10;;;22.10;42.00;;;;;;10475265;28;20223;-73
2021/07/31 03:31:39;;;;;;;7.23;4.63;;;22.10;42.40;;;;;;10465456;28;20229;-73
2021/07/31 03:36:42;;;;;;;5.20;4.80;;;22.10;42.20;;;;;;10463518;28;20232;-73
2021/07/31 03:41:47;;;;;;;4.53;4.17;;;22.20;42.20;;;;;;10458062;28;20224;-73
2021/07/31 03:46:50;;;;;;;4.87;4.47;;;22.20;42.60;;;;;;10468517;28;20224;-73
2021/07/31 03:51:54;;;;;;;6.77;4.37;;;22.20;42.20;;;;;;10464262;28;20233;-73
2021/07/31 03:56:59;;;;;;;4.40;4.10;;;22.20;42.20;;;;;;10461768;28;20228;-73
2021/07/31 04:02:02;;;;;;;5.43;4.60;;;22.20;42.50;;;;;;10461848;28;20225;-73
2021/07/31 04:07:06;;;;;;;4.60;4.20;;;22.20;42.20;;;;;;10461072;28;20267;-73
2021/07/31 04:12:10;;;;;;;5.10;4.63;;;22.10;42.20;;;;;;10462090;28;20591;-73
2021/07/31 04:17:14;;;;;;;4.37;4.07;;;22.10;42.90;;;;;;10457460;28;20783;-71
2021/07/31 04:22:17;;;;;;;4.77;4.37;;;22.10;42.50;;;;;;10461039;28;20231;-70
2021/07/31 04:27:22;;;;;;;4.70;4.30;;;22.10;42.60;;;;;;10460637;28;20247;-71
2021/07/31 04:32:25;;;;;;;4.63;4.30;;;22.10;43.10;;;;;;10456761;28;20231;-73
2021/07/31 04:37:28;;;;;;;5.60;5.10;;;22.00;42.60;;;;;;10459059;28;20577;-73
2021/07/31 04:42:33;;;;;;;4.57;4.27;;;22.00;42.70;;;;;;10462264;28;20232;-73
2021/07/31 04:47:40;;;;;;;4.20;3.80;;;22.00;43.40;;;;;;10453711;28;20221;-70
2021/07/31 04:52:43;;;;;;;5.17;4.73;;;22.10;43.60;;;;;;10460269;28;20225;-70
2021/07/31 04:57:47;;;;;;;5.77;5.27;;;22.10;43.10;;;;;;10457727;28;20232;-71
2021/07/31 05:02:51;;;;;;;5.40;4.90;;;22.20;43.50;;;;;;10456967;28;20897;-70
2021/07/31 05:07:54;;;;;;;5.20;4.80;;;22.20;43.10;;;;;;10463885;28;20374;-70
2021/07/31 05:12:59;;;;;;;4.57;4.17;;;22.30;43.00;;;;;;10454755;28;20721;-70
2021/07/31 05:18:02;;;;;;;6.50;4.57;;;22.30;43.50;;;;;;10454793;28;20225;-72
2021/07/31 05:23:05;;;;;;;5.13;4.73;;;22.30;43.00;;;;;;10457586;28;20232;-73
2021/07/31 05:28:09;;;;;;;7.43;4.57;;;22.30;43.10;;;;;;10456534;28;20240;-68
2021/07/31 05:33:13;;;;;;;5.53;5.13;;;22.40;43.60;;;;;;10461320;28;20597;-68
2021/07/31 05:38:16;;;;;;;4.90;4.47;;;22.40;43.20;;;;;;10457819;28;20233;-74
2021/07/31 05:43:20;;;;;;;5.30;4.30;;;22.40;43.40;;;;;;10452924;28;20228;-72
2021/07/31 05:48:23;;;;;;;4.90;4.50;;;22.50;43.70;;;;;;10453376;28;20247;-73
2021/07/31 05:53:27;;;;;;;6.17;4.73;;;22.50;43.40;;;;;;10462297;28;20228;-70
2021/07/31 05:58:31;;;;;;;6.67;4.83;;;22.60;43.30;;;;;;10453346;28;20225;-70
2021/07/31 06:03:35;;;;;;;4.97;4.57;;;22.60;43.90;;;;;;10454265;28;20229;-71
2021/07/31 06:08:38;;;;;;;5.30;4.87;;;22.70;43.60;;;;;;10454476;28;20224;-70
2021/07/31 06:13:43;;;;;;;5.60;5.10;;;22.80;43.30;;;;;;10454940;28;20246;-70
2021/07/31 06:18:46;;;;;;;6.00;5.50;;;22.90;43.80;;;;;;10458028;28;20221;-70
2021/07/31 06:23:49;;;;;;;5.47;4.97;;;22.90;43.20;;;;;;10456973;28;20717;-74
2021/07/31 06:28:53;;;;;;;5.30;4.90;;;22.90;42.80;;;;;;10455408;28;20225;-74
2021/07/31 06:33:58;;;;;;;5.80;4.87;;;22.90;42.90;;;;;;10455874;28;20319;-74
2021/07/31 06:39:01;;;;;;;5.13;4.63;;;23.00;43.30;;;;;;10453076;28;20224;-70
2021/07/31 06:44:07;;;;;;;4.77;4.27;;;23.00;42.80;;;;;;10453290;28;20232;-73
2021/07/31 06:49:11;;;;;;;4.80;4.40;;;23.10;42.30;;;;;;10446401;28;20229;-72
2021/07/31 06:54:14;;;;;;;5.07;4.50;;;23.20;42.40;;;;;;10452483;28;20623;-74
2021/07/31 06:59:19;;;;;;;5.87;4.60;;;23.20;41.90;;;;;;10449717;28;20229;-74
2021/07/31 07:04:22;;;;;;;4.83;4.43;;;23.20;42.00;;;;;;10453027;28;20666;-74
2021/07/31 07:09:25;;;;;;;4.77;4.37;;;23.20;42.20;;;;;;10451127;28;20216;-68
2021/07/31 07:14:29;;;;;;;4.17;3.80;;;23.10;41.50;;;;;;10449658;28;20228;-68
2021/07/31 07:19:33;;;;;;;4.90;4.40;;;23.10;41.50;;;;;;10449902;28;20223;-67
2021/07/31 07:24:37;;;;;;;4.10;3.80;;;23.20;41.60;;;;;;10456012;28;20315;-75
2021/07/31 07:29:41;;;;;;;4.30;3.90;;;23.20;41.00;;;;;;10454031;28;20225;-74
2021/07/31 07:34:44;;;;;;;4.40;4.00;;;23.20;40.60;;;;;;10458554;28;20223;-74
2021/07/31 07:39:48;;;;;;;4.67;4.10;;;23.10;41.00;;;;;;10450959;28;20232;-68
2021/07/31 07:44:53;;;;;;;4.20;3.80;;;23.00;41.00;;;;;;10451907;28;20630;-74
2021/07/31 07:49:56;;;;;;;3.53;3.23;;;23.10;40.70;;;;;;10452249;28;20949;-68
2021/07/31 07:54:59;;;;;;;3.43;2.73;;;23.10;40.10;;;;;;10452702;28;20790;-67
2021/07/31 08:00:06;;;;;;;3.10;2.80;;;23.20;40.00;;;;;;10455561;28;20716;-70
2021/07/31 08:05:11;;;;;;;5.60;2.57;;;23.30;39.40;;;;;;10443304;28;20232;-70
2021/07/31 08:10:14;;;;;;;2.47;2.23;;;23.50;39.40;;;;;;10454728;28;20224;-73
2021/07/31 08:15:19;;;;;;;2.37;2.17;;;23.60;38.50;;;;;;10456953;28;20827;-74
2021/07/31 08:20:22;;;;;;;3.30;2.07;;;23.80;38.00;;;;;;10460053;28;20236;-73
2021/07/31 08:25:26;;;;;;;2.47;2.10;;;23.90;38.40;;;;;;10457114;28;20616;-67
2021/07/31 08:30:30;;;;;;;2.30;1.90;;;24.10;37.90;;;;;;10457756;28;20224;-67
2021/07/31 08:35:34;;;;;;;2.70;1.73;;;24.20;37.20;;;;;;10455944;28;20594;-71
2021/07/31 08:40:38;;;;;;;3.40;2.03;;;24.40;38.00;;;;;;10458624;28;20229;-77
2021/07/31 08:45:43;;;;;;;1.87;1.73;;;24.60;37.30;;;;;;10454828;28;20236;-73
2021/07/31 08:50:49;;;;;;;2.13;1.93;;;24.70;36.50;;;;;;10454402;28;20235;-72
2021/07/31 08:55:52;;;;;;;2.10;1.80;;;24.90;36.40;;;;;;10460080;28;20239;-72
2021/07/31 09:00:58;;;;;;;3.00;2.00;;;25.10;37.40;;;;;;10464892;28;20274;-72
2021/07/31 09:06:03;;;;;;;2.97;2.20;;;25.30;36.40;;;;;;10461269;28;20261;-73
2021/07/31 09:11:07;;;;;;;2.60;2.13;;;25.40;36.10;;;;;;10463178;28;20220;-72
2021/07/31 09:16:11;;;;;;;4.37;2.30;;;25.60;35.40;;;;;;10453613;28;20244;-71
2021/07/31 09:21:16;;;;;;;2.30;2.10;;;25.60;34.10;;;;;;10455073;28;20709;-72
2021/07/31 09:26:22;;;;;;;2.47;1.80;;;25.60;34.40;;;;;;10457886;28;20231;-72
2021/07/31 09:31:26;;;;;;;2.53;2.00;;;25.70;34.50;;;;;;10456701;28;20588;-71
2021/07/31 09:36:37;;;;;;;1.90;1.70;;;25.80;33.90;;;;;;10452310;28;20882;-72
2021/07/31 09:41:41;;;;;;;2.10;2.00;;;25.90;33.50;;;;;;10449747;28;20229;-72
2021/07/31 09:46:47;;;;;;;2.27;2.07;;;26.00;33.80;;;;;;10449629;28;20235;-72
2021/07/31 09:51:53;;;;;;;2.73;1.90;;;26.00;33.30;;;;;;10450524;28;20323;-72
2021/07/31 09:56:56;;;;;;;2.87;1.90;;;26.00;33.50;;;;;;10450203;28;20239;-71
2021/07/31 10:02:03;;;;;;;2.57;1.90;;;26.20;34.00;;;;;;10450611;28;20286;-72
2021/07/31 10:07:07;;;;;;;2.73;2.07;;;26.40;33.30;;;;;;10439933;28;20221;-70
2021/07/31 10:12:11;;;;;;;2.30;2.10;;;26.50;33.70;;;;;;10448178;28;20235;-69
2021/07/31 10:17:16;;;;;;;3.83;2.00;;;26.60;32.90;;;;;;10454939;28;20240;-69
2021/07/31 10:22:39;;;;;;;2.27;2.10;;;26.70;32.40;;;;;;10449923;28;20224;-69
2021/07/31 10:27:43;;;;;;;3.73;1.80;;;26.90;33.30;;;;;;10448250;28;20223;-69
2021/07/31 10:32:47;;;;;;;3.37;2.20;;;26.90;32.70;;;;;;10454259;28;20232;-77
2021/07/31 10:37:51;;;;;;;2.17;1.97;;;27.10;32.00;;;;;;10458553;28;20228;-70
2021/07/31 10:43:05;;;;;;;2.83;2.10;;;27.20;31.80;;;;;;10455814;28;20228;-70
2021/07/31 10:48:29;;;;;;;2.63;1.90;;;27.10;31.10;;;;;;10453917;28;20216;-70
2021/07/31 10:53:53;;;;;;;2.57;2.00;;;27.30;30.10;;;;;;10452265;28;20233;-70
2021/07/31 10:59:19;;;;;;;2.63;2.00;;;27.30;30.70;;;;;;10446679;28;20709;-70
2021/07/31 11:04:57;;;;;;;3.37;1.97;;;27.40;31.10;;;;;;10448460;28;20319;-70
2021/07/31 11:10:42;;;;;;;2.57;2.10;;;27.50;30.00;;;;;;10453870;28;20279;-70
2021/07/31 11:16:19;;;;;;;3.03;2.03;;;27.60;31.20;;;;;;10454145;28;20332;-70
2021/07/31 11:21:26;;;;;;;2.13;1.90;;;27.70;30.00;;;;;;10453051;28;20225;-70
2021/07/31 11:26:44;;;;;;;3.00;2.20;;;27.80;30.10;;;;;;10453260;28;20761;-70
2021/07/31 11:31:59;;;;;;;2.67;2.13;;;27.80;29.60;;;;;;10443483;28;20224;-70
2021/07/31 11:37:04;;;;;;;4.80;1.90;;;27.80;28.40;;;;;;10449017;28;20235;-70
2021/07/31 11:42:09;;;;;;;3.53;1.90;;;27.80;29.30;;;;;;10453822;28;21019;-70
2021/07/31 11:47:12;;;;;;;2.00;1.90;;;27.70;30.00;;;;;;10455018;28;20220;-70
2021/07/31 11:52:17;;;;;;;2.20;2.10;;;27.70;30.00;;;;;;10460006;28;20779;-70
2021/07/31 11:57:20;;;;;;;3.00;2.17;;;27.80;29.80;;;;;;10456274;28;20237;-70
2021/07/31 12:02:37;;;;;;;3.30;2.00;;;27.80;30.00;;;;;;10456843;28;20229;-70
2021/07/31 12:07:42;;;;;;;2.43;2.10;;;27.80;29.20;;;;;;10454626;28;20224;-70
2021/07/31 12:12:46;;;;;;;2.80;2.00;;;27.70;29.00;;;;;;10456017;28;22638;-70
2021/07/31 12:18:05;;;;;;;3.63;2.00;;;27.70;28.80;;;;;;10456939;28;20248;-70
2021/07/31 12:23:13;;;;;;;2.70;1.90;;;27.60;27.70;;;;;;10459008;28;20298;-71
2021/07/31 12:28:17;;;;;;;2.20;1.90;;;27.50;27.90;;;;;;10452213;28;20216;-77
2021/07/31 12:33:20;;;;;;;2.13;2.00;;;27.40;28.70;;;;;;10461585;28;20232;-73
2021/07/31 12:38:30;;;;;;;1.93;1.73;;;27.40;29.00;;;;;;10457330;28;20607;-72
2021/07/31 12:43:34;;;;;;;2.80;2.10;;;27.50;30.00;;;;;;10458636;28;20236;-72
2021/07/31 12:48:37;;;;;;;2.77;2.27;;;27.70;29.20;;;;;;10446537;28;20221;-72
2021/07/31 12:53:42;;;;;;;2.20;2.00;;;27.90;29.30;;;;;;10461297;28;20708;-72
2021/07/31 12:58:45;;;;;;;2.30;2.10;;;28.00;28.80;;;;;;10458777;28;20723;-72
2021/07/31 13:03:50;;;;;;;2.73;2.10;;;28.10;29.10;;;;;;10455348;28;20237;-72
2021/07/31 13:08:55;;;;;;;3.70;2.23;;;28.20;29.00;;;;;;10460408;28;20728;-72
2021/07/31 13:13:58;;;;;;;2.50;2.30;;;28.10;28.40;;;;;;10454613;28;20603;-72
2021/07/31 13:19:02;;;;;;;2.30;2.10;;;28.10;28.00;;;;;;10452321;28;20225;-71
2021/07/31 13:24:07;;;;;;;3.23;2.10;;;28.10;28.30;;;;;;10458155;28;20228;-72
2021/07/31 13:29:10;;;;;;;2.47;2.10;;;28.10;27.90;;;;;;10456834;28;20629;-72
2021/07/31 13:34:14;;;;;;;2.00;1.90;;;28.20;28.00;;;;;;10457038;28;20957;-73
2021/07/31 13:39:20;;;;;;;2.27;2.00;;;28.10;27.20;;;;;;10456831;28;20298;-73
2021/07/31 13:44:24;;;;;;;2.67;1.90;;;28.10;27.50;;;;;;10458089;28;20229;-73
2021/07/31 13:49:27;;;;;;;3.80;2.00;;;28.10;27.90;;;;;;10449780;28;20236;-74
2021/07/31 13:54:33;;;;;;;1.90;1.80;;;28.10;28.50;;;;;;10454954;28;20239;-68
2021/07/31 13:59:36;;;;;;;1.80;1.70;;;28.10;27.10;;;;;;10456289;28;20217;-68
2021/07/31 14:04:40;;;;;;;2.00;1.80;;;28.00;27.40;;;;;;10455521;28;20236;-68
2021/07/31 14:09:46;;;;;;;1.87;1.77;;;27.90;27.90;;;;;;10456889;28;20220;-68
2021/07/31 14:14:49;;;;;;;2.20;2.00;;;28.00;28.00;;;;;;10455938;28;20613;-68
2021/07/31 14:19:53;;;;;;;2.30;2.00;;;28.10;27.70;;;;;;10453152;28;20220;-68
2021/07/31 14:25:02;;;;;;;1.93;1.80;;;28.10;27.40;;;;;;10447590;28;20744;-68
2021/07/31 14:30:06;;;;;;;1.70;1.60;;;28.10;26.70;;;;;;10454144;28;20216;-72
2021/07/31 14:35:14;;;;;;;2.17;1.97;;;28.20;27.20;;;;;;10451563;28;20225;-72
2021/07/31 14:40:18;;;;;;;2.70;1.90;;;28.20;27.50;;;;;;10454557;28;20242;-71
2021/07/31 14:45:22;;;;;;;3.10;1.90;;;28.30;26.70;;;;;;10454799;28;20243;-71
2021/07/31 14:50:25;;;;;;;2.90;1.87;;;28.40;26.80;;;;;;10455596;28;20283;-71
2021/07/31 14:55:29;;;;;;;1.97;1.80;;;28.50;26.40;;;;;;10450244;28;20223;-71
2021/07/31 15:00:33;;;;;;;1.70;1.60;;;28.40;26.20;;;;;;10453517;28;20224;-68
2021/07/31 15:05:36;;;;;;;2.77;1.87;;;28.40;26.60;;;;;;10449534;28;20225;-69
2021/07/31 15:10:41;;;;;;;1.70;1.60;;;28.50;25.80;;;;;;10447285;28;20689;-68
2021/07/31 15:15:44;;;;;;;1.90;1.80;;;28.50;25.50;;;;;;10455634;28;20312;-69
2021/07/31 15:20:47;;;;;;;2.03;1.60;;;28.40;26.00;;;;;;10461768;28;20227;-68
2021/07/31 15:25:51;;;;;;;2.40;1.70;;;28.50;25.50;;;;;;10459734;28;20224;-68
2021/07/31 15:30:56;;;;;;;1.67;1.50;;;28.50;25.70;;;;;;10463648;28;20304;-68
2021/07/31 15:36:01;;;;;;;2.17;1.73;;;28.50;25.40;;;;;;10458523;28;20224;-68
2021/07/31 15:41:07;;;;;;;1.73;1.50;;;28.50;25.10;;;;;;10463804;28;20741;-74
2021/07/31 15:46:10;;;;;;;2.50;1.73;;;28.60;24.80;;;;;;10464503;28;20223;-74
2021/07/31 15:51:14;;;;;;;2.00;1.80;;;28.60;25.50;;;;;;10469528;28;20228;-75
2021/07/31 15:56:18;;;;;;;1.83;1.70;;;28.70;25.30;;;;;;10471015;28;20232;-75
2021/07/31 16:01:25;;;;;;;1.70;1.60;;;28.70;25.10;;;;;;10466345;28;20232;-75
2021/07/31 16:06:28;;;;;;;1.60;1.50;;;28.70;25.00;;;;;;10468834;28;20224;-74
2021/07/31 16:11:32;;;;;;;1.73;1.53;;;28.70;24.70;;;;;;10467523;28;20227;-75
2021/07/31 16:16:36;;;;;;;2.33;1.63;;;28.70;24.40;;;;;;10461517;28;20278;-76
2021/07/31 16:21:39;;;;;;;1.67;1.57;;;28.60;24.70;;;;;;10458432;28;20225;-75
2021/07/31 16:26:44;;;;;;;1.60;1.50;;;28.60;24.60;;;;;;10467800;28;20225;-75
2021/07/31 16:32:07;;;;;;;1.60;1.50;;;28.50;24.20;;;;;;10455382;28;20911;-74
2021/07/31 16:37:10;;;;;;;1.77;1.60;;;28.50;24.30;;;;;;10454571;28;20232;-74
2021/07/31 16:42:15;;;;;;;1.80;1.70;;;28.40;24.50;;;;;;10461393;28;20232;-74
2021/07/31 16:47:18;;;;;;;2.37;1.63;;;28.30;23.90;;;;;;10457258;28;20224;-74
2021/07/31 16:52:21;;;;;;;1.90;1.70;;;28.30;24.30;;;;;;10456601;28;20236;-74
2021/07/31 16:57:26;;;;;;;2.03;1.70;;;28.30;24.50;;;;;;10455572;28;20228;-74
2021/07/31 17:02:30;;;;;;;2.00;1.80;;;28.30;24.60;;;;;;10458485;28;20755;-75
2021/07/31 17:07:33;;;;;;;2.13;2.03;;;28.30;24.70;;;;;;10457200;28;20251;-74
2021/07/31 17:12:40;;;;;;;2.13;2.03;;;28.20;24.80;;;;;;10457512;28;20221;-74
2021/07/31 17:17:43;;;;;;;2.70;1.80;;;28.20;24.80;;;;;;10462508;28;20224;-74
2021/07/31 17:22:49;;;;;;;3.33;1.90;;;28.10;24.70;;;;;;10458114;28;20990;-75
2021/07/31 17:27:55;;;;;;;2.10;1.50;;;28.10;24.90;;;;;;10458368;28;20251;-75
2021/07/31 17:32:58;;;;;;;2.60;1.70;;;28.10;24.10;;;;;;10461549;28;20240;-75
2021/07/31 17:38:02;;;;;;;1.60;1.50;;;28.10;25.20;;;;;;10459600;28;20232;-73
2021/07/31 17:43:06;;;;;;;5.20;3.23;;;28.20;24.60;;;;;;10461319;28;20231;-72
2021/07/31 17:48:10;;;;;;;2.10;1.70;;;28.30;24.90;;;;;;10456479;28;20894;-71
2021/07/31 17:53:13;;;;;;;2.27;1.60;;;28.40;24.60;;;;;;10460331;28;20225;-72
2021/07/31 17:58:18;;;;;;;1.87;1.40;;;28.40;24.40;;;;;;10459910;28;20228;-72
2021/07/31 18:03:21;;;;;;;2.40;1.60;;;28.40;24.20;;;;;;10454327;28;20236;-72
2021/07/31 18:08:24;;;;;;;1.80;1.53;;;28.40;24.10;;;;;;10453590;28;20734;-72
2021/07/31 18:13:29;;;;;;;1.83;1.43;;;28.40;24.20;;;;;;10449864;28;20909;-72
2021/07/31 18:18:32;;;;;;;1.60;1.50;;;28.40;23.70;;;;;;10453345;28;20221;-69
2021/07/31 18:23:35;;;;;;;2.83;1.70;;;28.30;23.90;;;;;;10448313;28;20535;-69
2021/07/31 18:28:41;;;;;;;1.60;1.50;;;28.20;23.80;;;;;;10452531;28;20224;-69
2021/07/31 18:33:45;;;;;;;2.30;1.50;;;28.20;24.10;;;;;;10453773;28;20281;-69
2021/07/31 18:38:49;;;;;;;1.70;1.60;;;28.00;24.30;;;;;;10454940;28;20870;-69
2021/07/31 18:43:54;;;;;;;2.20;1.73;;;27.90;24.50;;;;;;10453489;28;20236;-68
2021/07/31 18:48:57;;;;;;;2.17;1.60;;;27.80;25.10;;;;;;10456124;28;20244;-72
2021/07/31 18:54:02;;;;;;;2.40;1.90;;;27.80;25.10;;;;;;10452341;28;20722;-72
2021/07/31 18:59:06;;;;;;;4.27;2.13;;;27.80;24.70;;;;;;10450979;28;20311;-72
2021/07/31 19:04:10;;;;;;;2.90;1.83;;;27.60;24.10;;;;;;10455920;28;20340;-72
2021/07/31 19:09:14;;;;;;;2.47;1.50;;;27.50;24.10;;;;;;10451038;28;20569;-72
2021/07/31 19:14:18;;;;;;;2.70;1.70;;;27.40;24.20;;;;;;10438545;28;20251;-72
2021/07/31 19:19:22;;;;;;;2.53;1.50;;;27.30;24.20;;;;;;10442337;28;20243;-72
2021/07/31 19:24:25;;;;;;;2.27;1.47;;;27.10;24.40;;;;;;10440276;28;20228;-72
2021/07/31 19:29:30;;;;;;;1.50;1.40;;;27.10;24.70;;;;;;10440363;28;20224;-72
2021/07/31 19:34:33;;;;;;;1.50;1.40;;;27.00;25.30;;;;;;10446121;28;20229;-72
2021/07/31 19:39:36;;;;;;;1.80;1.70;;;27.00;25.10;;;;;;10442686;28;21010;-72
2021/07/31 19:44:41;;;;;;;1.70;1.60;;;27.00;25.40;;;;;;10435510;28;20228;-72
2021/07/31 19:49:44;;;;;;;2.70;1.50;;;27.00;25.60;;;;;;10437707;28;20220;-72
2021/07/31 19:54:47;;;;;;;2.33;1.67;;;27.00;25.80;;;;;;10445273;28;20795;-72
2021/07/31 19:59:52;;;;;;;1.67;1.50;;;27.00;25.80;;;;;;10447722;28;20251;-72
2021/07/31 20:04:56;;;;;;;2.60;1.43;;;26.90;26.00;;;;;;10449883;28;20614;-72
2021/07/31 20:09:59;;;;;;;2.37;1.50;;;26.90;26.10;;;;;;10456873;28;20229;-72
2021/07/31 20:15:04;;;;;;;2.17;1.53;;;26.80;25.30;;;;;;10454112;28;20225;-72
2021/07/31 20:20:09;;;;;;;1.50;1.40;;;26.70;25.00;;;;;;10454966;28;20721;-72
2021/07/31 20:25:14;;;;;;;1.60;1.50;;;26.50;25.00;;;;;;10452797;28;21333;-72
2021/07/31 20:30:18;;;;;;;2.20;1.53;;;26.50;25.20;;;;;;10456156;28;20232;-72
2021/07/31 20:35:22;;;;;;;1.80;1.60;;;26.40;25.10;;;;;;10445498;28;20236;-72
2021/07/31 20:40:25;;;;;;;1.60;1.47;;;26.30;25.30;;;;;;10447558;28;20635;-72
2021/07/31 20:45:30;;;;;;;2.27;1.67;;;26.20;25.50;;;;;;10452560;28;20611;-72
2021/07/31 20:50:33;;;;;;;2.17;1.77;;;26.20;25.80;;;;;;10448455;28;20224;-72
2021/07/31 20:55:36;;;;;;;1.63;1.53;;;26.10;25.90;;;;;;10451512;28;20225;-72
2021/07/31 21:00:41;;;;;;;1.70;1.60;;;26.10;26.00;;;;;;10446488;28;20229;-72
2021/07/31 21:05:44;;;;;;;1.60;1.50;;;26.10;26.00;;;;;;10450586;28;20228;-72
2021/07/31 21:10:48;;;;;;;2.47;1.90;;;26.00;26.20;;;;;;10451286;28;20949;-72
2021/07/31 21:15:52;;;;;;;2.47;1.70;;;26.00;26.30;;;;;;10454197;28;20228;-72
2021/07/31 21:20:56;;;;;;;2.17;1.67;;;26.00;26.40;;;;;;10454229;28;20228;-72
2021/07/31 21:25:59;;;;;;;3.33;1.73;;;25.90;26.60;;;;;;10446784;28;20224;-72
2021/07/31 21:31:04;;;;;;;2.37;1.70;;;25.80;26.40;;;;;;10448079;28;20239;-72
2021/07/31 21:36:07;;;;;;;1.73;1.50;;;25.70;26.50;;;;;;10453684;28;20237;-72
2021/07/31 21:41:11;;;;;;;4.20;1.90;;;25.60;26.50;;;;;;10443750;28;20228;-72
2021/07/31 21:46:15;;;;;;;2.87;1.80;;;25.50;26.40;;;;;;10451692;28;20318;-72
2021/07/31 21:51:21;;;;;;;1.77;1.47;;;25.50;26.80;;;;;;10445050;28;20243;-72
2021/07/31 21:56:25;;;;;;;1.67;1.57;;;25.40;26.80;;;;;;10457596;28;20229;-72
2021/07/31 22:01:30;;;;;;;2.97;1.87;;;25.30;27.10;;;;;;10454680;28;20254;-72
2021/07/31 22:06:33;;;;;;;2.50;1.77;;;25.20;27.50;;;;;;10449996;28;20226;-72
2021/07/31 22:11:37;;;;;;;3.60;2.17;;;25.20;27.40;;;;;;10453568;28;20228;-72
2021/07/31 22:16:41;;;;;;;2.17;1.80;;;25.20;27.70;;;;;;10454254;28;20669;-72
2021/07/31 22:21:45;;;;;;;2.97;1.87;;;25.20;28.10;;;;;;10456278;28;20252;-72
2021/07/31 22:26:48;;;;;;;2.00;1.80;;;25.10;27.90;;;;;;10456276;28;20755;-72
2021/07/31 22:31:52;;;;;;;2.47;1.70;;;25.00;28.00;;;;;;10454748;28;20701;-69
2021/07/31 22:36:56;;;;;;;2.20;1.83;;;24.90;28.20;;;;;;10456654;28;20721;-69
2021/07/31 22:41:59;;;;;;;2.17;1.87;;;24.90;27.90;;;;;;10453418;28;20233;-69
2021/07/31 22:47:05;;;;;;;2.90;1.80;;;24.90;28.10;;;;;;10458235;28;20706;-70
2021/07/31 22:52:08;;;;;;;2.30;1.67;;;24.80;28.60;;;;;;10454412;28;20734;-69
2021/07/31 22:57:12;;;;;;;2.20;2.00;;;24.70;28.50;;;;;;10458266;28;20582;-69
2021/07/31 23:02:16;;;;;;;2.77;2.00;;;24.70;28.50;;;;;;10455834;28;20608;-69
2021/07/31 23:07:20;;;;;;;2.73;2.00;;;24.60;28.40;;;;;;10453758;28;20307;-69
2021/07/31 23:12:23;;;;;;;2.10;1.90;;;24.60;28.50;;;;;;10454871;28;20237;-72
2021/07/31 23:17:28;;;;;;;2.43;1.90;;;24.50;28.40;;;;;;10449223;28;20263;-72
2021/07/31 23:22:31;;;;;;;2.40;2.20;;;24.50;28.60;;;;;;10456790;28;20247;-72
2021/07/31 23:27:34;;;;;;;3.03;2.83;;;24.40;28.90;;;;;;10459997;28;20231;-72
2021/07/31 23:32:39;;;;;;;6.27;4.20;;;24.30;29.10;;;;;;10458714;28;20757;-72
2021/07/31 23:37:42;;;;;;;6.80;6.10;;;24.20;29.60;;;;;;10463507;28;20739;-73
2021/07/31 23:42:45;;;;;;;8.87;7.43;;;24.10;29.40;;;;;;10463842;28;20247;-73
2021/07/31 23:47:50;;;;;;;7.93;7.10;;;24.00;29.70;;;;;;10461108;28;20850;-74
2021/07/31 23:52:53;;;;;;;4.53;4.13;;;24.00;30.30;;;;;;10464260;28;20233;-74
2021/07/31 23:57:57;;;;;;;3.37;2.80;;;23.90;30.00;;;;;;10466945;28;20247;-74
